sensor_id;sensor_type;location;lat;lon;timestamp;temperature;humidity
34833;DHT22;55941;50.800;4.342;2023-05-29T00:00:14;16.20;99.90
34833;DHT22;55941;50.800;4.342;2023-05-29T00:02:45;16.20;99.90
34833;DHT22;55941;50.800;4.342;2023-05-29T00:05:11;16.00;99.90
34833;DHT22;55941;50.800;4.342;2023-05-29T00:07:38;16.00;99.90
34833;DHT22;55941;50.800;4.342;2023-05-29T00:10:05;16.10;99.90
34833;DHT22;55941;50.800;4.342;2023-05-29T00:12:31;16.00;99.90
34833;DHT22;55941;50.800;4.342;2023-05-29T00:14:58;16.00;99.90
34833;DHT22;55941;50.800;4.342;2023-05-29T00:17:24;16.00;99.90
34833;DHT22;55941;50.800;4.342;2023-05-29T00:19:50;15.90;99.90
34833;DHT22;55941;50.800;4.342;2023-05-29T00:22:16;16.00;99.90
34833;DHT22;55941;50.800;4.342;2023-05-29T00:24:43;15.90;99.90
34833;DHT22;55941;50.800;4.342;2023-05-29T00:27:09;15.90;99.90
34833;DHT22;55941;50.800;4.342;2023-05-29T00:29:38;15.80;99.90
34833;DHT22;55941;50.800;4.342;2023-05-29T00:32:04;15.80;99.90
34833;DHT22;55941;50.800;4.342;2023-05-29T00:34:30;15.80;99.90
34833;DHT22;55941;50.800;4.342;2023-05-29T00:36:56;15.80;99.90
34833;DHT22;55941;50.800;4.342;2023-05-29T00:39:22;15.60;99.90
34833;DHT22;55941;50.800;4.342;2023-05-29T00:41:48;15.60;99.90
34833;DHT22;55941;50.800;4.342;2023-05-29T00:44:17;15.50;99.90
34833;DHT22;55941;50.800;4.342;2023-05-29T00:46:43;15.50;99.90
34833;DHT22;55941;50.800;4.342;2023-05-29T00:49:09;15.40;99.90
34833;DHT22;55941;50.800;4.342;2023-05-29T00:51:37;15.40;99.90
34833;DHT22;55941;50.800;4.342;2023-05-29T00:54:04;15.40;99.90
34833;DHT22;55941;50.800;4.342;2023-05-29T00:56:32;15.40;99.90
34833;DHT22;55941;50.800;4.342;2023-05-29T00:58:58;15.40;99.90
34833;DHT22;55941;50.800;4.342;2023-05-29T01:01:24;15.30;99.90
34833;DHT22;55941;50.800;4.342;2023-05-29T01:03:51;15.30;99.90
34833;DHT22;55941;50.800;4.342;2023-05-29T01:06:19;15.20;99.90
34833;DHT22;55941;50.800;4.342;2023-05-29T01:08:46;15.10;99.90
34833;DHT22;55941;50.800;4.342;2023-05-29T01:13:56;15.00;99.90
34833;DHT22;55941;50.800;4.342;2023-05-29T01:17:06;15.00;99.90
34833;DHT22;55941;50.800;4.342;2023-05-29T01:20:05;14.90;99.90
34833;DHT22;55941;50.800;4.342;2023-05-29T01:25:21;14.90;99.90
34833;DHT22;55941;50.800;4.342;2023-05-29T01:27:49;14.90;99.90
34833;DHT22;55941;50.800;4.342;2023-05-29T01:30:18;14.80;99.90
34833;DHT22;55941;50.800;4.342;2023-05-29T01:32:46;14.70;99.90
34833;DHT22;55941;50.800;4.342;2023-05-29T01:35:12;14.60;99.90
34833;DHT22;55941;50.800;4.342;2023-05-29T01:37:39;14.60;99.90
34833;DHT22;55941;50.800;4.342;2023-05-29T01:40:05;14.50;99.90
34833;DHT22;55941;50.800;4.342;2023-05-29T01:42:31;14.60;99.90
34833;DHT22;55941;50.800;4.342;2023-05-29T01:44:57;14.40;99.90
34833;DHT22;55941;50.800;4.342;2023-05-29T01:47:23;14.30;99.90
34833;DHT22;55941;50.800;4.342;2023-05-29T01:49:51;14.30;99.90
34833;DHT22;55941;50.800;4.342;2023-05-29T01:52:17;14.20;99.90
34833;DHT22;55941;50.800;4.342;2023-05-29T01:54:44;14.20;99.90
34833;DHT22;55941;50.800;4.342;2023-05-29T01:57:10;14.30;99.90
34833;DHT22;55941;50.800;4.342;2023-05-29T01:59:37;14.20;99.90
34833;DHT22;55941;50.800;4.342;2023-05-29T02:02:09;14.20;99.90
34833;DHT22;55941;50.800;4.342;2023-05-29T02:04:35;14.20;99.90
34833;DHT22;55941;50.800;4.342;2023-05-29T02:07:01;14.20;99.90
34833;DHT22;55941;50.800;4.342;2023-05-29T02:09:27;14.10;99.90
34833;DHT22;55941;50.800;4.342;2023-05-29T02:11:53;14.00;99.90
34833;DHT22;55941;50.800;4.342;2023-05-29T02:14:19;14.00;99.90
34833;DHT22;55941;50.800;4.342;2023-05-29T02:16:45;14.00;99.90
34833;DHT22;55941;50.800;4.342;2023-05-29T02:19:10;13.90;99.90
34833;DHT22;55941;50.800;4.342;2023-05-29T02:21:39;14.00;99.90
34833;DHT22;55941;50.800;4.342;2023-05-29T02:24:08;14.00;99.90
34833;DHT22;55941;50.800;4.342;2023-05-29T02:26:34;14.10;99.90
34833;DHT22;55941;50.800;4.342;2023-05-29T02:29:02;14.00;99.90
34833;DHT22;55941;50.800;4.342;2023-05-29T02:31:28;13.90;99.90
34833;DHT22;55941;50.800;4.342;2023-05-29T02:33:54;13.90;99.90
34833;DHT22;55941;50.800;4.342;2023-05-29T02:36:20;14.00;99.90
34833;DHT22;55941;50.800;4.342;2023-05-29T02:38:46;13.80;99.90
34833;DHT22;55941;50.800;4.342;2023-05-29T02:41:11;13.80;99.90
34833;DHT22;55941;50.800;4.342;2023-05-29T02:43:37;13.80;99.90
34833;DHT22;55941;50.800;4.342;2023-05-29T02:46:03;13.70;99.90
34833;DHT22;55941;50.800;4.342;2023-05-29T02:48:28;13.80;99.90
34833;DHT22;55941;50.800;4.342;2023-05-29T02:50:54;13.80;99.90
34833;DHT22;55941;50.800;4.342;2023-05-29T02:53:20;13.60;99.90
34833;DHT22;55941;50.800;4.342;2023-05-29T02:55:46;13.50;99.90
34833;DHT22;55941;50.800;4.342;2023-05-29T02:58:14;13.50;99.90
34833;DHT22;55941;50.800;4.342;2023-05-29T03:00:41;13.60;99.90
34833;DHT22;55941;50.800;4.342;2023-05-29T03:03:08;13.60;99.90
34833;DHT22;55941;50.800;4.342;2023-05-29T03:05:34;13.50;99.90
34833;DHT22;55941;50.800;4.342;2023-05-29T03:08:00;13.50;99.90
34833;DHT22;55941;50.800;4.342;2023-05-29T03:10:26;13.50;99.90
34833;DHT22;55941;50.800;4.342;2023-05-29T03:12:51;13.40;99.90
34833;DHT22;55941;50.800;4.342;2023-05-29T03:15:17;13.50;99.90
34833;DHT22;55941;50.800;4.342;2023-05-29T03:17:46;13.40;99.90
34833;DHT22;55941;50.800;4.342;2023-05-29T03:20:12;13.50;99.90
34833;DHT22;55941;50.800;4.342;2023-05-29T03:22:38;13.40;99.90
34833;DHT22;55941;50.800;4.342;2023-05-29T03:25:04;13.40;99.90
34833;DHT22;55941;50.800;4.342;2023-05-29T03:27:30;13.30;99.90
34833;DHT22;55941;50.800;4.342;2023-05-29T03:29:56;13.30;99.90
34833;DHT22;55941;50.800;4.342;2023-05-29T03:32:23;13.20;99.90
34833;DHT22;55941;50.800;4.342;2023-05-29T03:34:49;13.20;99.90
34833;DHT22;55941;50.800;4.342;2023-05-29T03:37:14;13.20;99.90
34833;DHT22;55941;50.800;4.342;2023-05-29T03:39:40;13.20;99.90
34833;DHT22;55941;50.800;4.342;2023-05-29T03:42:06;13.30;99.90
34833;DHT22;55941;50.800;4.342;2023-05-29T03:44:32;13.20;99.90
34833;DHT22;55941;50.800;4.342;2023-05-29T03:46:57;13.00;99.90
34833;DHT22;55941;50.800;4.342;2023-05-29T03:49:23;13.10;99.90
34833;DHT22;55941;50.800;4.342;2023-05-29T03:51:49;13.10;99.90
34833;DHT22;55941;50.800;4.342;2023-05-29T03:54:15;13.10;99.90
34833;DHT22;55941;50.800;4.342;2023-05-29T03:56:41;13.00;99.90
34833;DHT22;55941;50.800;4.342;2023-05-29T03:59:07;12.80;99.90
34833;DHT22;55941;50.800;4.342;2023-05-29T04:01:33;12.80;99.90
34833;DHT22;55941;50.800;4.342;2023-05-29T04:04:00;12.70;99.90
34833;DHT22;55941;50.800;4.342;2023-05-29T04:06:25;12.70;99.90
34833;DHT22;55941;50.800;4.342;2023-05-29T04:08:51;12.70;99.90
34833;DHT22;55941;50.800;4.342;2023-05-29T04:11:17;12.60;99.90
34833;DHT22;55941;50.800;4.342;2023-05-29T04:13:46;12.70;99.90
34833;DHT22;55941;50.800;4.342;2023-05-29T04:16:13;12.70;99.90
34833;DHT22;55941;50.800;4.342;2023-05-29T04:18:39;12.60;99.90
34833;DHT22;55941;50.800;4.342;2023-05-29T04:21:05;12.60;99.90
34833;DHT22;55941;50.800;4.342;2023-05-29T04:23:31;12.60;99.90
34833;DHT22;55941;50.800;4.342;2023-05-29T04:25:57;12.60;99.90
34833;DHT22;55941;50.800;4.342;2023-05-29T04:28:23;12.50;99.90
34833;DHT22;55941;50.800;4.342;2023-05-29T04:30:49;12.60;99.90
34833;DHT22;55941;50.800;4.342;2023-05-29T04:33:16;12.50;99.90
34833;DHT22;55941;50.800;4.342;2023-05-29T04:35:42;12.60;99.90
34833;DHT22;55941;50.800;4.342;2023-05-29T04:38:11;12.60;99.90
34833;DHT22;55941;50.800;4.342;2023-05-29T04:40:38;12.60;99.90
34833;DHT22;55941;50.800;4.342;2023-05-29T04:43:05;12.60;99.90
34833;DHT22;55941;50.800;4.342;2023-05-29T04:45:31;12.50;99.90
34833;DHT22;55941;50.800;4.342;2023-05-29T04:47:57;12.50;99.90
34833;DHT22;55941;50.800;4.342;2023-05-29T04:50:24;12.50;99.90
34833;DHT22;55941;50.800;4.342;2023-05-29T04:52:51;12.40;99.90
34833;DHT22;55941;50.800;4.342;2023-05-29T04:55:16;12.50;99.90
34833;DHT22;55941;50.800;4.342;2023-05-29T04:57:43;12.50;99.90
34833;DHT22;55941;50.800;4.342;2023-05-29T05:00:09;12.50;99.90
34833;DHT22;55941;50.800;4.342;2023-05-29T05:02:41;12.50;99.90
34833;DHT22;55941;50.800;4.342;2023-05-29T05:05:08;12.60;99.90
34833;DHT22;55941;50.800;4.342;2023-05-29T05:07:34;12.70;99.90
34833;DHT22;55941;50.800;4.342;2023-05-29T05:10:00;12.70;99.90
34833;DHT22;55941;50.800;4.342;2023-05-29T05:12:26;12.70;99.90
34833;DHT22;55941;50.800;4.342;2023-05-29T05:14:52;12.70;99.90
34833;DHT22;55941;50.800;4.342;2023-05-29T05:17:17;12.80;99.90
34833;DHT22;55941;50.800;4.342;2023-05-29T05:19:43;12.90;99.90
34833;DHT22;55941;50.800;4.342;2023-05-29T05:22:08;13.00;99.90
34833;DHT22;55941;50.800;4.342;2023-05-29T05:24:34;13.10;99.90
34833;DHT22;55941;50.800;4.342;2023-05-29T05:27:00;13.00;99.90
34833;DHT22;55941;50.800;4.342;2023-05-29T05:29:27;13.10;99.90
34833;DHT22;55941;50.800;4.342;2023-05-29T05:31:52;13.00;99.90
34833;DHT22;55941;50.800;4.342;2023-05-29T05:34:18;13.00;99.90
34833;DHT22;55941;50.800;4.342;2023-05-29T05:36:44;13.10;99.90
34833;DHT22;55941;50.800;4.342;2023-05-29T05:39:10;13.10;99.90
34833;DHT22;55941;50.800;4.342;2023-05-29T05:41:35;13.20;99.90
34833;DHT22;55941;50.800;4.342;2023-05-29T05:44:01;13.00;99.90
34833;DHT22;55941;50.800;4.342;2023-05-29T05:46:26;13.00;99.90
34833;DHT22;55941;50.800;4.342;2023-05-29T05:48:53;13.00;99.90
34833;DHT22;55941;50.800;4.342;2023-05-29T05:51:22;12.90;99.90
34833;DHT22;55941;50.800;4.342;2023-05-29T05:53:49;13.00;99.90
34833;DHT22;55941;50.800;4.342;2023-05-29T05:56:14;13.00;99.90
34833;DHT22;55941;50.800;4.342;2023-05-29T05:58:41;13.10;99.90
34833;DHT22;55941;50.800;4.342;2023-05-29T06:01:07;13.10;99.90
34833;DHT22;55941;50.800;4.342;2023-05-29T06:03:34;13.20;99.90
34833;DHT22;55941;50.800;4.342;2023-05-29T06:06:00;13.20;99.90
34833;DHT22;55941;50.800;4.342;2023-05-29T06:08:25;13.40;99.90
34833;DHT22;55941;50.800;4.342;2023-05-29T06:10:51;13.40;99.90
34833;DHT22;55941;50.800;4.342;2023-05-29T06:13:17;13.30;99.90
34833;DHT22;55941;50.800;4.342;2023-05-29T06:15:44;13.20;99.90
34833;DHT22;55941;50.800;4.342;2023-05-29T06:18:10;13.20;99.90
34833;DHT22;55941;50.800;4.342;2023-05-29T06:20:37;13.20;99.90
34833;DHT22;55941;50.800;4.342;2023-05-29T06:23:02;13.10;99.90
34833;DHT22;55941;50.800;4.342;2023-05-29T06:25:28;13.10;99.90
34833;DHT22;55941;50.800;4.342;2023-05-29T06:28:02;13.10;99.90
34833;DHT22;55941;50.800;4.342;2023-05-29T06:30:31;13.10;99.90
34833;DHT22;55941;50.800;4.342;2023-05-29T06:32:57;13.30;99.90
34833;DHT22;55941;50.800;4.342;2023-05-29T06:35:22;13.30;99.90
34833;DHT22;55941;50.800;4.342;2023-05-29T06:37:48;13.50;99.90
34833;DHT22;55941;50.800;4.342;2023-05-29T06:40:14;13.40;99.90
34833;DHT22;55941;50.800;4.342;2023-05-29T06:42:41;13.50;99.90
34833;DHT22;55941;50.800;4.342;2023-05-29T06:45:10;13.70;99.90
34833;DHT22;55941;50.800;4.342;2023-05-29T06:47:37;13.70;99.90
34833;DHT22;55941;50.800;4.342;2023-05-29T06:50:02;13.70;99.90
34833;DHT22;55941;50.800;4.342;2023-05-29T06:52:28;13.80;99.90
34833;DHT22;55941;50.800;4.342;2023-05-29T06:54:54;13.80;99.90
34833;DHT22;55941;50.800;4.342;2023-05-29T06:57:19;13.80;99.90
34833;DHT22;55941;50.800;4.342;2023-05-29T06:59:45;13.80;99.90
34833;DHT22;55941;50.800;4.342;2023-05-29T07:02:12;13.90;99.90
34833;DHT22;55941;50.800;4.342;2023-05-29T07:04:37;14.10;99.90
34833;DHT22;55941;50.800;4.342;2023-05-29T07:07:03;14.10;99.90
34833;DHT22;55941;50.800;4.342;2023-05-29T07:09:29;14.00;99.90
34833;DHT22;55941;50.800;4.342;2023-05-29T07:11:54;14.00;99.90
34833;DHT22;55941;50.800;4.342;2023-05-29T07:14:20;14.10;99.90
34833;DHT22;55941;50.800;4.342;2023-05-29T07:16:46;14.20;99.90
34833;DHT22;55941;50.800;4.342;2023-05-29T07:19:11;14.40;99.90
34833;DHT22;55941;50.800;4.342;2023-05-29T07:21:39;14.40;99.90
34833;DHT22;55941;50.800;4.342;2023-05-29T07:24:04;14.50;99.90
34833;DHT22;55941;50.800;4.342;2023-05-29T07:26:31;14.50;99.90
34833;DHT22;55941;50.800;4.342;2023-05-29T07:28:57;14.60;99.90
34833;DHT22;55941;50.800;4.342;2023-05-29T07:31:23;14.60;99.90
34833;DHT22;55941;50.800;4.342;2023-05-29T07:33:48;14.60;99.90
34833;DHT22;55941;50.800;4.342;2023-05-29T07:36:17;14.70;99.90
34833;DHT22;55941;50.800;4.342;2023-05-29T07:38:43;14.90;99.90
34833;DHT22;55941;50.800;4.342;2023-05-29T07:41:09;14.90;99.90
34833;DHT22;55941;50.800;4.342;2023-05-29T07:43:35;14.90;99.90
34833;DHT22;55941;50.800;4.342;2023-05-29T07:46:01;14.90;99.90
34833;DHT22;55941;50.800;4.342;2023-05-29T07:48:26;14.90;99.90
34833;DHT22;55941;50.800;4.342;2023-05-29T07:50:52;14.90;99.90
34833;DHT22;55941;50.800;4.342;2023-05-29T07:53:18;15.00;99.90
34833;DHT22;55941;50.800;4.342;2023-05-29T07:55:43;15.10;99.90
34833;DHT22;55941;50.800;4.342;2023-05-29T07:58:09;15.10;99.90
34833;DHT22;55941;50.800;4.342;2023-05-29T08:00:36;15.30;99.90
34833;DHT22;55941;50.800;4.342;2023-05-29T08:03:03;15.50;99.90
34833;DHT22;55941;50.800;4.342;2023-05-29T08:05:29;15.50;99.90
34833;DHT22;55941;50.800;4.342;2023-05-29T08:07:56;15.50;99.90
34833;DHT22;55941;50.800;4.342;2023-05-29T08:10:24;15.60;99.90
34833;DHT22;55941;50.800;4.342;2023-05-29T08:12:49;15.80;99.90
34833;DHT22;55941;50.800;4.342;2023-05-29T08:15:17;15.90;99.90
34833;DHT22;55941;50.800;4.342;2023-05-29T08:17:45;15.90;99.90
34833;DHT22;55941;50.800;4.342;2023-05-29T08:20:12;16.00;99.90
34833;DHT22;55941;50.800;4.342;2023-05-29T08:22:37;16.10;99.90
34833;DHT22;55941;50.800;4.342;2023-05-29T08:25:03;16.20;99.90
34833;DHT22;55941;50.800;4.342;2023-05-29T08:27:29;16.20;99.90
34833;DHT22;55941;50.800;4.342;2023-05-29T08:29:56;16.30;99.90
34833;DHT22;55941;50.800;4.342;2023-05-29T08:32:22;16.20;99.90
34833;DHT22;55941;50.800;4.342;2023-05-29T08:34:47;16.20;99.90
34833;DHT22;55941;50.800;4.342;2023-05-29T08:37:13;16.20;99.90
34833;DHT22;55941;50.800;4.342;2023-05-29T08:39:39;16.30;99.90
34833;DHT22;55941;50.800;4.342;2023-05-29T08:42:29;16.30;99.90
34833;DHT22;55941;50.800;4.342;2023-05-29T08:44:58;16.30;99.90
34833;DHT22;55941;50.800;4.342;2023-05-29T08:47:27;16.40;99.90
34833;DHT22;55941;50.800;4.342;2023-05-29T08:49:56;16.40;99.90
34833;DHT22;55941;50.800;4.342;2023-05-29T08:52:23;16.60;99.90
34833;DHT22;55941;50.800;4.342;2023-05-29T08:54:53;16.70;99.90
34833;DHT22;55941;50.800;4.342;2023-05-29T08:57:20;16.80;99.90
34833;DHT22;55941;50.800;4.342;2023-05-29T08:59:48;16.80;99.90
34833;DHT22;55941;50.800;4.342;2023-05-29T09:02:16;17.00;99.90
34833;DHT22;55941;50.800;4.342;2023-05-29T09:04:43;16.90;99.90
34833;DHT22;55941;50.800;4.342;2023-05-29T09:07:16;16.80;99.90
34833;DHT22;55941;50.800;4.342;2023-05-29T09:09:46;17.00;99.90
34833;DHT22;55941;50.800;4.342;2023-05-29T09:12:13;17.10;99.90
34833;DHT22;55941;50.800;4.342;2023-05-29T09:14:44;17.10;99.90
34833;DHT22;55941;50.800;4.342;2023-05-29T09:17:12;17.10;99.90
34833;DHT22;55941;50.800;4.342;2023-05-29T09:19:38;17.10;99.90
34833;DHT22;55941;50.800;4.342;2023-05-29T09:22:14;17.20;99.90
34833;DHT22;55941;50.800;4.342;2023-05-29T09:24:41;17.20;99.90
34833;DHT22;55941;50.800;4.342;2023-05-29T09:27:08;17.20;99.90
34833;DHT22;55941;50.800;4.342;2023-05-29T09:29:38;17.30;99.90
34833;DHT22;55941;50.800;4.342;2023-05-29T09:32:09;17.30;99.90
34833;DHT22;55941;50.800;4.342;2023-05-29T09:34:35;17.30;99.90
34833;DHT22;55941;50.800;4.342;2023-05-29T09:37:06;17.30;99.90
34833;DHT22;55941;50.800;4.342;2023-05-29T09:42:12;17.40;99.90
34833;DHT22;55941;50.800;4.342;2023-05-29T09:44:40;17.40;99.90
34833;DHT22;55941;50.800;4.342;2023-05-29T09:47:06;17.40;99.90
34833;DHT22;55941;50.800;4.342;2023-05-29T09:49:32;17.50;99.90
34833;DHT22;55941;50.800;4.342;2023-05-29T09:51:58;17.60;99.90
34833;DHT22;55941;50.800;4.342;2023-05-29T09:54:27;17.70;99.90
34833;DHT22;55941;50.800;4.342;2023-05-29T09:56:57;18.00;99.90
34833;DHT22;55941;50.800;4.342;2023-05-29T09:59:24;18.00;99.90
34833;DHT22;55941;50.800;4.342;2023-05-29T10:02:01;18.20;99.80
34833;DHT22;55941;50.800;4.342;2023-05-29T10:04:30;18.30;99.20
34833;DHT22;55941;50.800;4.342;2023-05-29T10:07:05;18.40;98.70
34833;DHT22;55941;50.800;4.342;2023-05-29T10:09:33;18.40;99.00
34833;DHT22;55941;50.800;4.342;2023-05-29T10:12:01;18.60;98.60
34833;DHT22;55941;50.800;4.342;2023-05-29T10:14:31;18.60;98.70
34833;DHT22;55941;50.800;4.342;2023-05-29T10:17:01;18.70;98.30
34833;DHT22;55941;50.800;4.342;2023-05-29T10:19:30;18.80;98.00
34833;DHT22;55941;50.800;4.342;2023-05-29T10:22:01;18.70;97.70
34833;DHT22;55941;50.800;4.342;2023-05-29T10:24:31;18.70;97.40
34833;DHT22;55941;50.800;4.342;2023-05-29T10:26:58;18.50;97.30
34833;DHT22;55941;50.800;4.342;2023-05-29T10:29:37;18.60;97.40
34833;DHT22;55941;50.800;4.342;2023-05-29T10:37:42;18.90;96.80
34833;DHT22;55941;50.800;4.342;2023-05-29T10:40:11;19.10;96.80
34833;DHT22;55941;50.800;4.342;2023-05-29T10:42:44;19.20;96.70
34833;DHT22;55941;50.800;4.342;2023-05-29T10:45:10;19.30;96.70
34833;DHT22;55941;50.800;4.342;2023-05-29T10:47:39;19.20;96.50
34833;DHT22;55941;50.800;4.342;2023-05-29T10:50:05;19.30;96.60
34833;DHT22;55941;50.800;4.342;2023-05-29T10:52:32;19.50;96.30
34833;DHT22;55941;50.800;4.342;2023-05-29T10:54:58;19.60;95.90
34833;DHT22;55941;50.800;4.342;2023-05-29T10:57:24;19.80;95.40
34833;DHT22;55941;50.800;4.342;2023-05-29T11:00:06;20.10;95.00
34833;DHT22;55941;50.800;4.342;2023-05-29T11:02:36;20.10;94.80
34833;DHT22;55941;50.800;4.342;2023-05-29T11:07:55;20.50;93.90
34833;DHT22;55941;50.800;4.342;2023-05-29T11:10:44;20.70;93.60
34833;DHT22;55941;50.800;4.342;2023-05-29T11:13:35;21.00;92.80
34833;DHT22;55941;50.800;4.342;2023-05-29T11:16:09;21.00;92.80
34833;DHT22;55941;50.800;4.342;2023-05-29T11:18:42;21.30;92.10
34833;DHT22;55941;50.800;4.342;2023-05-29T11:23:54;21.70;91.50
34833;DHT22;55941;50.800;4.342;2023-05-29T11:26:22;21.90;91.10
34833;DHT22;55941;50.800;4.342;2023-05-29T11:28:49;22.10;90.30
34833;DHT22;55941;50.800;4.342;2023-05-29T11:31:15;22.10;90.20
34833;DHT22;55941;50.800;4.342;2023-05-29T11:33:48;22.20;90.10
34833;DHT22;55941;50.800;4.342;2023-05-29T11:36:21;22.50;89.80
34833;DHT22;55941;50.800;4.342;2023-05-29T11:38:46;22.70;87.60
34833;DHT22;55941;50.800;4.342;2023-05-29T11:41:13;22.90;87.40
34833;DHT22;55941;50.800;4.342;2023-05-29T11:43:39;23.10;87.60
34833;DHT22;55941;50.800;4.342;2023-05-29T11:46:18;23.20;86.40
34833;DHT22;55941;50.800;4.342;2023-05-29T11:48:45;23.50;85.50
34833;DHT22;55941;50.800;4.342;2023-05-29T11:51:11;23.90;83.80
34833;DHT22;55941;50.800;4.342;2023-05-29T11:53:40;24.00;83.20
34833;DHT22;55941;50.800;4.342;2023-05-29T11:56:08;24.10;81.70
34833;DHT22;55941;50.800;4.342;2023-05-29T11:58:36;23.90;82.20
34833;DHT22;55941;50.800;4.342;2023-05-29T12:01:04;24.00;81.20
34833;DHT22;55941;50.800;4.342;2023-05-29T12:03:37;24.10;80.90
34833;DHT22;55941;50.800;4.342;2023-05-29T12:06:03;23.90;80.40
34833;DHT22;55941;50.800;4.342;2023-05-29T12:08:29;24.00;80.70
34833;DHT22;55941;50.800;4.342;2023-05-29T12:10:54;24.30;80.60
34833;DHT22;55941;50.800;4.342;2023-05-29T12:13:20;24.70;79.60
34833;DHT22;55941;50.800;4.342;2023-05-29T12:15:48;24.70;77.80
34833;DHT22;55941;50.800;4.342;2023-05-29T12:18:16;24.90;77.90
34833;DHT22;55941;50.800;4.342;2023-05-29T12:20:42;25.30;76.80
34833;DHT22;55941;50.800;4.342;2023-05-29T12:23:08;25.40;75.40
34833;DHT22;55941;50.800;4.342;2023-05-29T12:25:34;25.70;74.40
34833;DHT22;55941;50.800;4.342;2023-05-29T12:28:02;25.80;73.90
34833;DHT22;55941;50.800;4.342;2023-05-29T12:30:28;25.90;72.20
34833;DHT22;55941;50.800;4.342;2023-05-29T12:32:54;25.60;72.60
34833;DHT22;55941;50.800;4.342;2023-05-29T12:38:02;25.70;71.00
34833;DHT22;55941;50.800;4.342;2023-05-29T12:40:31;25.90;71.80
34833;DHT22;55941;50.800;4.342;2023-05-29T12:43:00;26.30;70.70
34833;DHT22;55941;50.800;4.342;2023-05-29T12:45:27;26.00;69.70
34833;DHT22;55941;50.800;4.342;2023-05-29T12:50:25;26.20;69.70
34833;DHT22;55941;50.800;4.342;2023-05-29T12:53:02;26.50;68.70
34833;DHT22;55941;50.800;4.342;2023-05-29T12:55:30;26.70;67.60
34833;DHT22;55941;50.800;4.342;2023-05-29T12:57:56;27.20;67.20
34833;DHT22;55941;50.800;4.342;2023-05-29T13:00:23;27.70;65.40
34833;DHT22;55941;50.800;4.342;2023-05-29T13:02:49;27.60;65.50
34833;DHT22;55941;50.800;4.342;2023-05-29T13:05:17;27.70;63.90
34833;DHT22;55941;50.800;4.342;2023-05-29T13:07:46;27.40;63.30
34833;DHT22;55941;50.800;4.342;2023-05-29T13:10:14;27.80;64.00
34833;DHT22;55941;50.800;4.342;2023-05-29T13:12:41;28.10;63.60
34833;DHT22;55941;50.800;4.342;2023-05-29T13:15:07;28.20;62.30
34833;DHT22;55941;50.800;4.342;2023-05-29T13:17:33;28.10;63.10
34833;DHT22;55941;50.800;4.342;2023-05-29T13:19:59;28.40;61.40
34833;DHT22;55941;50.800;4.342;2023-05-29T13:22:26;28.30;60.50
34833;DHT22;55941;50.800;4.342;2023-05-29T13:24:57;28.40;59.70
34833;DHT22;55941;50.800;4.342;2023-05-29T13:27:23;28.30;59.60
34833;DHT22;55941;50.800;4.342;2023-05-29T13:29:49;28.20;59.70
34833;DHT22;55941;50.800;4.342;2023-05-29T13:32:15;28.50;60.00
34833;DHT22;55941;50.800;4.342;2023-05-29T13:34:42;28.70;61.10
34833;DHT22;55941;50.800;4.342;2023-05-29T13:37:10;29.10;59.10
34833;DHT22;55941;50.800;4.342;2023-05-29T13:39:35;29.10;58.00
34833;DHT22;55941;50.800;4.342;2023-05-29T13:42:02;28.80;58.70
34833;DHT22;55941;50.800;4.342;2023-05-29T13:44:31;28.80;58.10
34833;DHT22;55941;50.800;4.342;2023-05-29T13:46:57;28.50;57.90
34833;DHT22;55941;50.800;4.342;2023-05-29T13:49:26;28.50;58.50
34833;DHT22;55941;50.800;4.342;2023-05-29T13:51:54;28.70;58.50
34833;DHT22;55941;50.800;4.342;2023-05-29T13:54:19;29.10;57.90
34833;DHT22;55941;50.800;4.342;2023-05-29T13:56:45;29.20;57.60
34833;DHT22;55941;50.800;4.342;2023-05-29T13:59:12;29.50;57.50
34833;DHT22;55941;50.800;4.342;2023-05-29T14:01:38;29.40;55.70
34833;DHT22;55941;50.800;4.342;2023-05-29T14:04:04;29.00;56.70
34833;DHT22;55941;50.800;4.342;2023-05-29T14:06:38;29.40;57.00
34833;DHT22;55941;50.800;4.342;2023-05-29T14:09:05;29.70;56.20
34833;DHT22;55941;50.800;4.342;2023-05-29T14:11:35;29.80;55.40
34833;DHT22;55941;50.800;4.342;2023-05-29T14:14:04;29.70;55.60
34833;DHT22;55941;50.800;4.342;2023-05-29T14:16:34;29.70;55.70
34833;DHT22;55941;50.800;4.342;2023-05-29T14:19:03;29.60;55.10
34833;DHT22;55941;50.800;4.342;2023-05-29T14:21:31;29.70;55.20
34833;DHT22;55941;50.800;4.342;2023-05-29T14:23:58;29.90;54.00
34833;DHT22;55941;50.800;4.342;2023-05-29T14:26:28;29.60;54.80
34833;DHT22;55941;50.800;4.342;2023-05-29T14:28:54;29.70;55.00
34833;DHT22;55941;50.800;4.342;2023-05-29T14:31:21;29.70;55.30
34833;DHT22;55941;50.800;4.342;2023-05-29T14:33:47;29.90;53.90
34833;DHT22;55941;50.800;4.342;2023-05-29T14:36:12;29.90;53.80
34833;DHT22;55941;50.800;4.342;2023-05-29T14:38:38;29.90;53.70
34833;DHT22;55941;50.800;4.342;2023-05-29T14:41:10;29.60;53.40
34833;DHT22;55941;50.800;4.342;2023-05-29T14:43:38;29.40;54.20
34833;DHT22;55941;50.800;4.342;2023-05-29T14:46:06;29.10;54.50
34833;DHT22;55941;50.800;4.342;2023-05-29T14:48:32;29.20;54.80
34833;DHT22;55941;50.800;4.342;2023-05-29T14:51:00;29.30;54.20
34833;DHT22;55941;50.800;4.342;2023-05-29T14:53:42;29.20;54.10
34833;DHT22;55941;50.800;4.342;2023-05-29T14:56:13;29.10;54.80
34833;DHT22;55941;50.800;4.342;2023-05-29T14:58:42;29.00;54.60
34833;DHT22;55941;50.800;4.342;2023-05-29T15:01:18;28.90;54.70
34833;DHT22;55941;50.800;4.342;2023-05-29T15:03:46;28.80;55.20
34833;DHT22;55941;50.800;4.342;2023-05-29T15:06:13;28.60;54.60
34833;DHT22;55941;50.800;4.342;2023-05-29T15:08:40;28.50;55.00
34833;DHT22;55941;50.800;4.342;2023-05-29T15:11:08;28.00;55.30
34833;DHT22;55941;50.800;4.342;2023-05-29T15:13:35;28.10;55.60
34833;DHT22;55941;50.800;4.342;2023-05-29T15:16:01;28.20;55.60
34833;DHT22;55941;50.800;4.342;2023-05-29T15:18:29;28.20;55.40
34833;DHT22;55941;50.800;4.342;2023-05-29T15:21:00;28.20;55.70
34833;DHT22;55941;50.800;4.342;2023-05-29T15:23:25;28.00;55.70
34833;DHT22;55941;50.800;4.342;2023-05-29T15:25:52;28.00;56.90
34833;DHT22;55941;50.800;4.342;2023-05-29T15:28:19;27.70;56.00
34833;DHT22;55941;50.800;4.342;2023-05-29T15:30:45;27.50;56.30
34833;DHT22;55941;50.800;4.342;2023-05-29T15:33:10;27.00;56.70
34833;DHT22;55941;50.800;4.342;2023-05-29T15:35:37;26.90;56.80
34833;DHT22;55941;50.800;4.342;2023-05-29T15:38:08;26.30;57.00
34833;DHT22;55941;50.800;4.342;2023-05-29T15:40:34;26.00;58.40
34833;DHT22;55941;50.800;4.342;2023-05-29T15:43:03;26.00;58.70
34833;DHT22;55941;50.800;4.342;2023-05-29T15:45:29;26.10;58.10
34833;DHT22;55941;50.800;4.342;2023-05-29T15:47:55;26.10;57.90
34833;DHT22;55941;50.800;4.342;2023-05-29T15:50:21;25.90;58.90
34833;DHT22;55941;50.800;4.342;2023-05-29T15:52:47;25.90;59.10
34833;DHT22;55941;50.800;4.342;2023-05-29T15:55:16;26.00;58.70